createdAt,value
2023-11-14T00:00:43.081Z,16.12
2023-11-14T00:03:32.053Z,16.12
2023-11-14T00:06:04.194Z,16.11
2023-11-14T00:08:33.975Z,16.11
2023-11-14T00:11:06.979Z,16.10
2023-11-14T00:13:36.135Z,16.08
2023-11-14T00:16:05.577Z,16.10
2023-11-14T00:18:34.583Z,16.08
2023-11-14T00:21:04.316Z,16.07
2023-11-14T00:23:33.071Z,16.08
2023-11-14T00:26:02.964Z,16.07
2023-11-14T00:28:32.953Z,16.07
2023-11-14T00:31:02.130Z,16.06
2023-11-14T00:33:30.999Z,16.06
2023-11-14T00:36:01.072Z,16.06
2023-11-14T00:38:29.740Z,16.05
2023-11-14T00:41:00.026Z,16.05
2023-11-14T00:43:29.700Z,16.05
2023-11-14T00:45:58.750Z,16.04
2023-11-14T00:48:28.164Z,16.04
2023-11-14T00:50:57.129Z,16.02
2023-11-14T00:53:26.150Z,16.02
2023-11-14T00:55:56.860Z,16.00
2023-11-14T00:58:26.321Z,16.00
2023-11-14T01:00:56.020Z,15.99
2023-11-14T01:03:27.161Z,15.99
2023-11-14T01:05:56.832Z,15.98
2023-11-14T01:08:26.221Z,15.98
2023-11-14T01:10:55.320Z,16.02
2023-11-14T01:13:24.098Z,15.98
2023-11-14T01:15:53.152Z,15.97
2023-11-14T01:18:21.842Z,15.96
2023-11-14T01:20:51.231Z,15.97
2023-11-14T01:23:20.260Z,15.96
2023-11-14T01:25:49.358Z,15.97
2023-11-14T01:28:18.092Z,15.96
2023-11-14T01:30:47.816Z,15.97
2023-11-14T01:33:16.481Z,15.94
2023-11-14T01:35:47.201Z,15.95
2023-11-14T01:38:16.363Z,15.94
2023-11-14T01:40:54.612Z,15.96
2023-11-14T01:43:23.642Z,15.94
2023-11-14T01:45:52.889Z,15.93
2023-11-14T01:48:21.603Z,15.92
2023-11-14T01:50:50.631Z,15.92
2023-11-14T01:53:20.398Z,15.94
2023-11-14T01:55:50.648Z,15.93
2023-11-14T01:58:19.375Z,15.93
2023-11-14T02:00:49.107Z,15.92
2023-11-14T02:03:18.638Z,15.92
2023-11-14T02:05:47.988Z,15.93
2023-11-14T02:08:17.973Z,15.91
2023-11-14T02:10:47.524Z,15.91
2023-11-14T02:13:16.289Z,15.92
2023-11-14T02:15:45.559Z,15.90
2023-11-14T02:18:20.013Z,15.90
2023-11-14T02:20:49.140Z,15.90
2023-11-14T02:23:18.617Z,15.91
2023-11-14T02:25:47.777Z,15.90
2023-11-14T02:28:16.551Z,15.90
2023-11-14T02:30:45.989Z,15.88
2023-11-14T02:33:14.684Z,15.87
2023-11-14T02:35:43.734Z,15.88
2023-11-14T02:38:12.795Z,15.87
2023-11-14T02:40:42.102Z,15.86
2023-11-14T02:43:11.394Z,15.88
2023-11-14T02:45:40.461Z,15.88
2023-11-14T02:48:10.193Z,15.86
2023-11-14T02:50:56.287Z,15.84
2023-11-14T02:53:24.937Z,15.84
2023-11-14T02:55:54.110Z,15.84
2023-11-14T02:58:22.860Z,15.83
2023-11-14T03:00:52.605Z,15.82
2023-11-14T03:03:22.072Z,15.83
2023-11-14T03:05:51.122Z,15.81
2023-11-14T03:08:19.832Z,15.81
2023-11-14T03:10:48.888Z,15.84
2023-11-14T03:13:19.293Z,15.83
2023-11-14T03:15:49.276Z,15.78
2023-11-14T03:18:17.891Z,15.78
2023-11-14T03:20:47.562Z,15.79
2023-11-14T03:23:16.306Z,15.77
2023-11-14T03:25:45.400Z,15.79
2023-11-14T03:28:14.022Z,15.78
2023-11-14T03:30:43.156Z,15.77
2023-11-14T03:33:12.083Z,15.76
2023-11-14T03:35:41.022Z,15.76
2023-11-14T03:38:09.689Z,15.76
2023-11-14T03:40:38.858Z,15.74
2023-11-14T03:43:07.490Z,15.74
2023-11-14T03:45:36.398Z,15.73
2023-11-14T03:48:05.457Z,15.72
2023-11-14T03:50:34.457Z,15.72
2023-11-14T03:53:04.056Z,15.74
2023-11-14T03:55:33.617Z,15.71
2023-11-14T03:58:02.233Z,15.70
2023-11-14T04:00:34.103Z,15.70
2023-11-14T04:03:02.876Z,15.67
2023-11-14T04:05:31.990Z,15.67
2023-11-14T04:08:01.573Z,15.68
2023-11-14T04:10:32.443Z,15.67
2023-11-14T04:13:02.264Z,15.67
2023-11-14T04:15:33.004Z,15.67
2023-11-14T04:18:01.711Z,15.65
2023-11-14T04:20:30.772Z,15.66
2023-11-14T04:22:59.619Z,15.65
2023-11-14T04:25:28.570Z,15.64
2023-11-14T04:27:57.160Z,15.63
2023-11-14T04:30:26.190Z,15.63
2023-11-14T04:32:54.960Z,15.62
2023-11-14T04:35:24.381Z,15.63
2023-11-14T04:37:57.007Z,15.60
2023-11-14T04:40:26.156Z,15.62
2023-11-14T04:42:54.753Z,15.62
2023-11-14T04:45:23.774Z,15.62
2023-11-14T04:47:52.467Z,15.60
2023-11-14T04:50:21.971Z,15.59
2023-11-14T04:52:50.776Z,15.57
2023-11-14T04:55:19.766Z,15.57
2023-11-14T04:57:48.422Z,15.58
2023-11-14T05:00:18.604Z,15.57
2023-11-14T05:02:47.318Z,15.57
2023-11-14T05:05:16.433Z,15.57
2023-11-14T05:07:45.260Z,15.55
2023-11-14T05:10:14.977Z,15.57
2023-11-14T05:12:43.579Z,15.58
2023-11-14T05:15:13.674Z,15.59
2023-11-14T05:17:42.411Z,15.64
2023-11-14T05:20:12.901Z,15.63
2023-11-14T05:22:41.588Z,15.71
2023-11-14T05:25:11.421Z,15.79
2023-11-14T05:27:40.140Z,15.81
2023-11-14T05:30:12.210Z,15.86
2023-11-14T05:32:41.035Z,15.96
2023-11-14T05:35:10.484Z,15.99
2023-11-14T05:37:39.172Z,16.11
2023-11-14T05:40:11.815Z,16.17
2023-11-14T05:42:43.488Z,16.31
2023-11-14T05:45:12.530Z,16.29
2023-11-14T05:47:41.166Z,16.32
2023-11-14T05:50:10.888Z,16.42
2023-11-14T05:52:39.729Z,16.39
2023-11-14T05:55:09.164Z,16.54
2023-11-14T05:57:37.725Z,16.63
2023-11-14T06:00:08.774Z,16.69
2023-11-14T06:02:48.416Z,16.82
2023-11-14T06:05:17.941Z,16.85
2023-11-14T06:07:46.643Z,16.85
2023-11-14T06:10:15.754Z,17.00
2023-11-14T06:12:45.034Z,17.12
2023-11-14T06:15:14.862Z,17.10
2023-11-14T06:17:43.523Z,17.21
2023-11-14T06:20:13.590Z,17.26
2023-11-14T06:22:42.412Z,17.32
2023-11-14T06:25:11.322Z,17.45
2023-11-14T06:27:39.927Z,17.48
2023-11-14T06:30:09.229Z,17.48
2023-11-14T06:32:38.052Z,17.47
2023-11-14T06:35:07.701Z,17.48
2023-11-14T06:37:39.543Z,17.47
2023-11-14T06:40:09.232Z,17.46
2023-11-14T06:42:37.904Z,17.45
2023-11-14T06:45:07.314Z,17.44
2023-11-14T06:47:36.009Z,17.44
2023-11-14T06:50:07.189Z,17.36
2023-11-14T06:52:35.939Z,17.37
2023-11-14T06:55:05.312Z,17.41
2023-11-14T06:57:33.976Z,17.30
2023-11-14T07:00:05.022Z,17.27
2023-11-14T07:02:34.018Z,17.26
2023-11-14T07:05:03.117Z,17.23
2023-11-14T07:07:31.761Z,17.20
2023-11-14T07:10:00.634Z,17.16
2023-11-14T07:12:29.320Z,17.09
2023-11-14T07:14:58.416Z,17.09
2023-11-14T07:17:27.715Z,17.06
2023-11-14T07:19:58.599Z,17.05
2023-11-14T07:22:27.298Z,17.00
2023-11-14T07:24:56.306Z,17.00
2023-11-14T07:27:25.049Z,16.96
2023-11-14T07:29:54.135Z,16.95
2023-11-14T07:32:22.810Z,16.90
2023-11-14T07:34:51.861Z,16.86
2023-11-14T07:37:20.636Z,16.85
2023-11-14T07:39:49.992Z,16.81
2023-11-14T07:42:19.263Z,16.82
2023-11-14T07:44:48.299Z,16.80
2023-11-14T07:47:21.151Z,16.74
2023-11-14T07:49:51.753Z,16.73
2023-11-14T07:52:20.596Z,16.72
2023-11-14T07:54:51.020Z,16.73
2023-11-14T07:57:19.825Z,16.69
2023-11-14T07:59:49.101Z,16.67
2023-11-14T08:02:17.965Z,16.65
2023-11-14T08:04:47.134Z,16.62
2023-11-14T08:07:15.905Z,16.58
2023-11-14T08:09:45.265Z,16.60
2023-11-14T08:12:14.016Z,16.56
2023-11-14T08:14:43.247Z,16.53
2023-11-14T08:17:12.331Z,16.53
2023-11-14T08:19:41.467Z,16.53
2023-11-14T08:22:10.571Z,16.53
2023-11-14T08:24:40.121Z,16.48
2023-11-14T08:27:09.059Z,16.48
2023-11-14T08:29:38.248Z,16.47
2023-11-14T08:32:07.666Z,16.46
2023-11-14T08:34:37.027Z,16.44
2023-11-14T08:37:05.866Z,16.43
2023-11-14T08:39:35.130Z,16.42
2023-11-14T08:42:04.110Z,16.37
2023-11-14T08:44:33.208Z,16.35
2023-11-14T08:47:01.955Z,16.35
2023-11-14T08:49:31.552Z,16.38
2023-11-14T08:52:00.205Z,16.31
2023-11-14T08:54:29.384Z,16.33
2023-11-14T08:56:59.004Z,16.36
2023-11-14T08:59:28.070Z,16.30
2023-11-14T09:01:57.604Z,16.27
2023-11-14T09:04:26.993Z,16.22
2023-11-14T09:06:55.806Z,16.25
2023-11-14T09:09:24.996Z,16.22
2023-11-14T09:11:53.757Z,16.20
2023-11-14T09:14:23.098Z,16.17
2023-11-14T09:16:53.167Z,16.18
2023-11-14T09:19:24.356Z,16.17
2023-11-14T09:21:53.362Z,16.16
2023-11-14T09:24:22.594Z,16.15
2023-11-14T09:26:51.328Z,16.14
2023-11-14T09:29:20.475Z,16.14
2023-11-14T09:31:49.916Z,16.12
2023-11-14T09:34:18.964Z,16.12
2023-11-14T09:36:47.653Z,16.18
2023-11-14T09:39:24.361Z,16.24
2023-11-14T09:41:57.081Z,16.29
2023-11-14T09:44:28.366Z,16.26
2023-11-14T09:46:57.228Z,16.27
2023-11-14T09:49:29.544Z,16.28
2023-11-14T09:52:00.656Z,16.36
2023-11-14T09:54:30.224Z,16.35
2023-11-14T09:56:58.985Z,16.34
2023-11-14T09:59:27.994Z,16.35
2023-11-14T10:01:56.886Z,16.34
2023-11-14T10:04:26.107Z,16.31
2023-11-14T10:06:55.316Z,16.41
2023-11-14T10:09:24.486Z,16.42
2023-11-14T10:12:12.733Z,16.44
2023-11-14T10:14:45.585Z,16.40
2023-11-14T10:17:19.553Z,16.41
2023-11-14T10:20:10.507Z,16.41
2023-11-14T10:22:51.239Z,16.39
2023-11-14T10:25:34.148Z,16.39
2023-11-14T10:28:08.544Z,16.42
2023-11-14T10:30:43.252Z,16.39
2023-11-14T10:33:12.347Z,16.38
2023-11-14T10:35:45.053Z,16.34
2023-11-14T10:38:21.534Z,16.35
2023-11-14T10:40:53.442Z,16.32
2023-11-14T10:43:31.057Z,16.30
2023-11-14T10:46:11.218Z,16.28
2023-11-14T10:48:40.025Z,16.29
2023-11-14T10:51:09.160Z,16.28
2023-11-14T10:53:37.963Z,16.33
2023-11-14T10:56:08.394Z,16.29
2023-11-14T10:58:37.374Z,16.32
2023-11-14T11:01:07.930Z,16.37
2023-11-14T11:03:36.761Z,16.37
2023-11-14T11:06:07.517Z,16.43
2023-11-14T11:08:36.167Z,16.44
2023-11-14T11:11:06.558Z,16.46
2023-11-14T11:13:35.272Z,16.48
2023-11-14T11:16:04.513Z,16.46
2023-11-14T11:18:37.045Z,16.46
2023-11-14T11:21:13.602Z,16.50
2023-11-14T11:24:06.661Z,16.45
2023-11-14T11:26:55.944Z,16.44
2023-11-14T11:30:06.294Z,16.40
2023-11-14T11:32:37.522Z,16.39
2023-11-14T11:35:22.373Z,16.33
2023-11-14T11:37:59.136Z,16.26
2023-11-14T11:40:33.586Z,16.25
2023-11-14T11:43:11.729Z,16.22
2023-11-14T11:45:50.832Z,16.21
2023-11-14T11:48:30.054Z,16.23
2023-11-14T11:51:21.455Z,16.19
2023-11-14T11:53:51.098Z,16.18
2023-11-14T11:56:49.054Z,16.16
2023-11-14T11:59:18.122Z,16.15
2023-11-14T12:01:50.336Z,16.13
2023-11-14T12:04:20.412Z,16.11
2023-11-14T12:06:49.652Z,16.12
2023-11-14T12:09:20.136Z,16.12
2023-11-14T12:11:48.894Z,16.10
2023-11-14T12:14:20.112Z,16.10
2023-11-14T12:16:49.314Z,16.09
2023-11-14T12:19:18.534Z,16.09
2023-11-14T12:21:47.534Z,16.05
2023-11-14T12:24:16.793Z,16.03
2023-11-14T12:26:46.872Z,16.10
2023-11-14T12:29:17.157Z,16.08
2023-11-14T12:31:54.096Z,16.05
2023-11-14T12:34:31.115Z,16.04
2023-11-14T12:37:10.301Z,16.05
2023-11-14T12:39:39.752Z,16.04
2023-11-14T12:42:11.117Z,16.03
2023-11-14T12:44:42.433Z,16.02
2023-11-14T12:47:13.284Z,16.03
2023-11-14T12:49:49.898Z,15.99
2023-11-14T12:52:18.720Z,16.03
2023-11-14T12:54:47.785Z,15.99
2023-11-14T12:57:16.506Z,15.94
2023-11-14T12:59:45.556Z,15.94
2023-11-14T13:02:14.920Z,15.95
2023-11-14T13:04:44.643Z,15.94
2023-11-14T13:07:13.471Z,15.95
2023-11-14T13:09:42.579Z,15.93
2023-11-14T13:12:13.896Z,15.93
2023-11-14T13:14:44.440Z,15.93
2023-11-14T13:17:14.385Z,15.92
2023-11-14T13:19:44.722Z,15.90
2023-11-14T13:22:19.804Z,15.90
2023-11-14T13:24:54.817Z,15.89
2023-11-14T13:27:23.661Z,15.90
2023-11-14T13:29:52.830Z,15.88
2023-11-14T13:32:21.756Z,15.88
2023-11-14T13:34:52.639Z,15.87
2023-11-14T13:37:21.439Z,15.87
2023-11-14T13:39:51.263Z,15.86
2023-11-14T13:42:21.757Z,15.84
2023-11-14T13:44:51.106Z,15.85
2023-11-14T13:47:20.310Z,15.85
2023-11-14T13:49:49.497Z,15.85
2023-11-14T13:52:18.279Z,15.83
2023-11-14T13:54:47.858Z,15.80
2023-11-14T13:57:19.159Z,15.81
2023-11-14T13:59:49.578Z,15.80
2023-11-14T14:02:18.870Z,15.80
2023-11-14T14:04:48.622Z,15.78
2023-11-14T14:07:17.852Z,15.78
2023-11-14T14:09:46.450Z,15.78
2023-11-14T14:12:15.703Z,15.78
2023-11-14T14:14:44.593Z,15.78
2023-11-14T14:17:13.740Z,15.77
2023-11-14T14:19:47.085Z,15.77
2023-11-14T14:22:19.084Z,15.75
2023-11-14T14:24:47.909Z,15.76
2023-11-14T14:27:19.196Z,15.75
2023-11-14T14:29:49.795Z,15.72
2023-11-14T14:32:19.570Z,15.71
2023-11-14T14:34:48.398Z,15.72
2023-11-14T14:37:17.483Z,15.70
2023-11-14T14:39:50.788Z,15.71
2023-11-14T14:42:21.716Z,15.69
2023-11-14T14:44:50.442Z,15.71
2023-11-14T14:47:21.133Z,15.72
2023-11-14T14:49:49.911Z,15.71
2023-11-14T14:52:19.126Z,15.69
2023-11-14T14:54:47.870Z,15.70
2023-11-14T14:57:17.020Z,15.71
2023-11-14T14:59:45.778Z,15.68
2023-11-14T15:02:15.151Z,15.68
2023-11-14T15:04:45.196Z,15.67
2023-11-14T15:07:16.229Z,15.65
2023-11-14T15:09:45.324Z,15.66
2023-11-14T15:12:14.451Z,15.65
2023-11-14T15:14:43.536Z,15.64
2023-11-14T15:17:12.884Z,15.65
2023-11-14T15:19:42.526Z,15.65
2023-11-14T15:22:12.533Z,15.64
2023-11-14T15:24:41.282Z,15.64
2023-11-14T15:27:10.293Z,15.64
2023-11-14T15:29:39.055Z,15.64
2023-11-14T15:32:10.219Z,15.62
2023-11-14T15:34:40.546Z,15.60
2023-11-14T15:37:10.170Z,15.60
2023-11-14T15:39:38.885Z,15.62
2023-11-14T15:42:07.970Z,15.62
2023-11-14T15:44:37.012Z,15.62
2023-11-14T15:47:06.558Z,15.61
2023-11-14T15:49:35.369Z,15.61
2023-11-14T15:52:04.762Z,15.61
2023-11-14T15:54:33.561Z,15.61
2023-11-14T15:57:02.669Z,15.58
2023-11-14T15:59:31.844Z,15.57
2023-11-14T16:02:01.956Z,15.58
2023-11-14T16:04:31.880Z,15.57
2023-11-14T16:07:02.034Z,15.58
2023-11-14T16:09:30.844Z,15.57
2023-11-14T16:11:59.953Z,15.60
2023-11-14T16:14:30.383Z,15.63
2023-11-14T16:16:59.507Z,15.65
2023-11-14T16:19:28.294Z,15.69
2023-11-14T16:21:58.916Z,15.78
2023-11-14T16:24:27.775Z,15.84
2023-11-14T16:26:56.837Z,15.90
2023-11-14T16:29:25.671Z,15.98
2023-11-14T16:31:54.859Z,16.11
2023-11-14T16:34:23.720Z,16.16
2023-11-14T16:36:52.922Z,16.19
2023-11-14T16:39:21.553Z,16.36
2023-11-14T16:41:50.675Z,16.42
2023-11-14T16:44:19.525Z,16.49
2023-11-14T16:46:48.712Z,16.51
2023-11-14T16:49:17.516Z,16.52
2023-11-14T16:51:46.694Z,16.73
2023-11-14T16:54:15.492Z,16.72
2023-11-14T16:56:48.404Z,16.85
2023-11-14T16:59:17.136Z,16.93
2023-11-14T17:01:47.615Z,17.02
2023-11-14T17:04:16.485Z,17.16
2023-11-14T17:06:45.906Z,17.14
2023-11-14T17:09:14.595Z,17.19
2023-11-14T17:11:43.735Z,17.12
2023-11-14T17:14:13.229Z,17.17
2023-11-14T17:16:42.335Z,17.11
2023-11-14T17:19:11.192Z,17.11
2023-11-14T17:21:40.193Z,17.07
2023-11-14T17:24:09.083Z,17.15
2023-11-14T17:26:38.278Z,17.12
2023-11-14T17:29:07.030Z,17.13
2023-11-14T17:31:43.738Z,17.10
2023-11-14T17:34:12.484Z,17.05
2023-11-14T17:36:41.990Z,17.09
2023-11-14T17:39:10.868Z,17.04
2023-11-14T17:41:40.678Z,17.01
2023-11-14T17:44:09.520Z,16.96
2023-11-14T17:46:38.936Z,16.98
2023-11-14T17:49:14.173Z,16.96
2023-11-14T17:51:43.739Z,16.92
2023-11-14T17:54:12.507Z,16.92
2023-11-14T17:56:42.142Z,16.91
2023-11-14T17:59:11.090Z,16.88
2023-11-14T18:01:40.676Z,16.83
2023-11-14T18:04:10.915Z,16.80
2023-11-14T18:06:42.603Z,16.78
2023-11-14T18:09:11.412Z,16.78
2023-11-14T18:11:40.565Z,16.73
2023-11-14T18:14:09.370Z,16.73
2023-11-14T18:16:38.507Z,16.71
2023-11-14T18:19:07.377Z,16.71
2023-11-14T18:21:36.504Z,16.76
2023-11-14T18:24:05.582Z,16.77
2023-11-14T18:26:35.008Z,16.78
2023-11-14T18:29:03.965Z,16.92
2023-11-14T18:31:33.233Z,16.97
2023-11-14T18:34:02.930Z,17.05
2023-11-14T18:36:33.097Z,17.12
2023-11-14T18:39:01.967Z,17.19
2023-11-14T18:41:31.084Z,17.23
2023-11-14T18:44:00.644Z,17.25
2023-11-14T18:46:29.955Z,17.23
2023-11-14T18:48:58.644Z,17.19
2023-11-14T18:51:27.724Z,17.19
2023-11-14T18:53:57.058Z,17.20
2023-11-14T18:56:29.733Z,17.16
2023-11-14T18:58:58.682Z,17.19
2023-11-14T19:01:28.273Z,17.16
2023-11-14T19:03:57.475Z,17.10
2023-11-14T19:06:26.615Z,17.07
2023-11-14T19:08:55.475Z,17.09
2023-11-14T19:11:27.144Z,17.05
2023-11-14T19:14:03.156Z,17.00
2023-11-14T19:16:34.311Z,16.97
2023-11-14T19:19:03.833Z,16.98
2023-11-14T19:21:44.660Z,17.01
2023-11-14T19:24:18.533Z,17.02
2023-11-14T19:26:48.120Z,17.02
2023-11-14T19:29:17.771Z,17.02
2023-11-14T19:31:47.269Z,17.03
2023-11-14T19:34:20.073Z,17.00
2023-11-14T19:36:51.900Z,17.00
2023-11-14T19:39:20.777Z,16.97
2023-11-14T19:41:49.891Z,16.93
2023-11-14T19:44:21.209Z,16.98
2023-11-14T19:46:50.379Z,16.99
2023-11-14T19:49:19.205Z,16.93
2023-11-14T19:51:50.593Z,16.90
2023-11-14T19:54:21.481Z,16.89
2023-11-14T19:56:50.921Z,16.90
2023-11-14T19:59:19.640Z,16.91
2023-11-14T20:01:49.147Z,16.90
2023-11-14T20:04:18.088Z,16.87
2023-11-14T21:07:03.840Z,16.60
2023-11-14T21:09:33.163Z,16.62
2023-11-14T21:12:01.951Z,16.61
2023-11-14T21:14:31.572Z,16.59
2023-11-14T21:17:00.554Z,16.56
2023-11-14T21:19:29.926Z,16.51
2023-11-14T21:21:59.228Z,16.52
2023-11-14T21:24:32.192Z,16.47
2023-11-14T21:27:02.212Z,16.45
2023-11-14T21:29:32.603Z,16.42
2023-11-14T21:32:02.323Z,16.38
2023-11-14T21:34:31.459Z,16.37
2023-11-14T21:37:00.275Z,16.34
2023-11-14T21:39:30.159Z,16.35
2023-11-14T21:42:00.224Z,16.33
2023-11-14T21:44:29.505Z,16.31
2023-11-14T21:46:58.309Z,16.33
2023-11-14T21:49:27.470Z,16.31
2023-11-14T21:51:56.272Z,16.29
2023-11-14T21:54:25.400Z,16.28
2023-11-14T21:56:54.486Z,16.26
2023-11-14T21:59:24.242Z,16.27
2023-11-14T22:01:52.966Z,16.25
2023-11-14T22:04:22.277Z,16.24
2023-11-14T22:06:51.286Z,16.25
2023-11-14T22:09:20.506Z,16.25
2023-11-14T22:11:49.468Z,16.24
2023-11-14T22:14:18.663Z,16.23
2023-11-14T22:16:47.501Z,16.24
2023-11-14T22:19:17.107Z,16.20
2023-11-14T22:21:45.991Z,16.21
2023-11-14T22:24:15.641Z,16.19
2023-11-14T22:26:44.748Z,16.18
2023-11-14T22:29:13.942Z,16.16
2023-11-14T22:31:42.811Z,16.20
2023-11-14T22:34:12.008Z,16.16
2023-11-14T22:36:40.994Z,16.15
2023-11-14T22:39:10.089Z,16.16
2023-11-14T22:41:38.889Z,16.13
2023-11-14T22:44:08.310Z,16.13
2023-11-14T22:46:38.279Z,16.13
2023-11-14T22:49:07.687Z,16.12
2023-11-14T22:51:36.600Z,16.12
2023-11-14T22:54:05.826Z,16.10
2023-11-14T22:56:34.782Z,16.10
2023-11-14T22:59:03.929Z,16.10
2023-11-14T23:01:36.790Z,16.08
2023-11-14T23:04:10.623Z,16.10
2023-11-14T23:06:42.416Z,16.09
2023-11-14T23:09:16.410Z,16.07
2023-11-14T23:11:46.519Z,16.07
2023-11-14T23:14:15.970Z,16.08
2023-11-14T23:16:45.157Z,16.07
2023-11-14T23:19:14.766Z,16.06
2023-11-14T23:21:49.180Z,16.05
2023-11-14T23:24:25.300Z,16.06
2023-11-14T23:26:54.174Z,16.05
2023-11-14T23:29:23.359Z,16.05
2023-11-14T23:31:52.157Z,16.04
2023-11-14T23:34:21.742Z,16.04
2023-11-14T23:36:50.522Z,16.04
2023-11-14T23:39:21.325Z,16.02
2023-11-14T23:41:50.951Z,16.03
2023-11-14T23:44:20.027Z,16.03
2023-11-14T23:46:48.972Z,15.99
2023-11-14T23:49:18.084Z,15.98
2023-11-14T23:51:46.818Z,15.98
2023-11-14T23:54:15.907Z,15.98
2023-11-14T23:56:45.329Z,15.97
2023-11-14T23:59:14.531Z,15.98
